Viru-Viru, Bolivia

7:11 PM BOT on December 06, 2016 (GMT -0400)
Viru Viru International | | Change Station

Elev 1224 ft 17.64 °S, 63.14 °W | Updated 11 minutes ago

Mostly Cloudy
Mostly Cloudy
77 °F
Feels Like 77 °F
N
14
Wind Variable Wind from North

Today
High -- | Low -- °F
--% Chance of Precip.
Yesterday
High -- | Low -- °F
Precip. -- in
Pressure 29.77 in
Visibility 5.0 miles
Clouds Scattered Clouds 1300 ft
Mostly Cloudy 1700 ft
Few 2700 ft
Mostly Cloudy 20000 ft
Dew Point 75 °F
Humidity 94%
Rainfall 0.00 in
Snow Depth Not available.
5:29 AM 6:38 PM
Waxing Crescent, 46% visible
METAR SLVR 062300Z 35012KT 8000 VCSH SCT013 BKN017 FEW027CB BKN200 25/24 Q1008
Pressure 29.77 in
Visibility 5.0 miles
Clouds Scattered Clouds 1300 ft
Mostly Cloudy 1700 ft
Few 2700 ft
Mostly Cloudy 20000 ft
Dew Point 75 °F
Humidity 94%
Rainfall 0.00 in
Snow Depth Not available.
5:29 AM 6:38 PM
Waxing Crescent, 46% visible
METAR SLVR 062300Z 35012KT 8000 VCSH SCT013 BKN017 FEW027CB BKN200 25/24 Q1008

10-Day Weather Forecast

No radar image for this location.
×

Almanac

Astronomy

Dec. 06, 2016 Rise Set
Actual Time
Civil Twilight
Nautical Twilight
Astronomical Twilight
Moon
Length of Visible Light
Length of Day
Tomorrow will be .
, % of the Moon is Illuminated

Today's Extremes

Country Highs Country Lows

Community

WunderPhotos

Upload Photos

1,956,044 photos uploaded!

WunderBlog® & News

Nearby

Air Quality

  Air Quality AQ Index Pollutant
Not available.

Snow Depth

Station Depth Elevation

Earthquake Activity

City Distance Mag. Time & Date
Minimum magnitude displayed is 2.5.

Coastal Water Temperatures

Place Temperature

Stations

Nearby Weather Stations

Station Location Temp. Windchill Dew Point Humidity Wind Precip. Elev Updated Type